createdAt,value
2023-09-13T00:00:59.985Z,0.00
2023-09-13T00:01:59.954Z,0.00
2023-09-13T00:02:59.921Z,0.00
2023-09-13T00:03:59.959Z,0.00
2023-09-13T00:04:59.929Z,0.00
2023-09-13T00:05:59.814Z,0.00
2023-09-13T00:06:59.831Z,0.00
2023-09-13T00:07:59.775Z,0.00
2023-09-13T00:08:59.754Z,0.00
2023-09-13T00:09:59.771Z,0.00
2023-09-13T00:10:59.715Z,0.00
2023-09-13T00:11:59.698Z,0.00
2023-09-13T00:12:59.720Z,0.00
2023-09-13T00:13:59.665Z,0.00
2023-09-13T00:14:59.641Z,0.00
2023-09-13T00:15:59.735Z,0.00
2023-09-13T00:16:59.635Z,0.00
2023-09-13T00:17:59.595Z,0.00
2023-09-13T00:18:59.617Z,0.00
2023-09-13T00:19:59.560Z,0.00
2023-09-13T00:20:59.533Z,0.00
2023-09-13T00:21:59.531Z,0.00
2023-09-13T00:22:59.492Z,0.00
2023-09-13T00:23:59.469Z,0.00
2023-09-13T00:24:59.524Z,0.00
2023-09-13T00:25:59.442Z,0.00
2023-09-13T00:26:59.415Z,0.00
2023-09-13T00:27:59.429Z,0.00
2023-09-13T00:28:59.401Z,0.00
2023-09-13T00:29:59.354Z,0.00
2023-09-13T00:30:59.484Z,0.00
2023-09-13T00:31:59.328Z,0.00
2023-09-13T00:32:59.377Z,0.00
2023-09-13T00:33:59.284Z,0.00
2023-09-13T00:34:59.268Z,0.00
2023-09-13T00:35:59.245Z,0.00
2023-09-13T00:36:59.289Z,0.00
2023-09-13T00:37:59.215Z,0.00
2023-09-13T00:38:59.211Z,0.00
2023-09-13T00:39:59.201Z,0.00
2023-09-13T00:40:59.190Z,0.00
2023-09-13T00:41:59.144Z,0.00
2023-09-13T00:42:59.169Z,0.00
2023-09-13T00:43:59.107Z,0.00
2023-09-13T00:44:59.094Z,0.00
2023-09-13T00:45:59.923Z,0.00
2023-09-13T00:46:59.175Z,0.00
2023-09-13T00:47:59.092Z,0.00
2023-09-13T00:48:59.059Z,0.00
2023-09-13T00:49:59.901Z,0.00
2023-09-13T00:50:59.948Z,0.00
2023-09-13T00:51:59.039Z,0.00
2023-09-13T00:52:58.945Z,0.00
2023-09-13T00:53:59.963Z,0.00
2023-09-13T00:54:58.941Z,0.00
2023-09-13T00:55:58.892Z,0.00
2023-09-13T00:56:58.880Z,0.00
2023-09-13T00:57:58.887Z,0.00
2023-09-13T00:58:58.844Z,0.00
2023-09-13T00:59:58.824Z,0.00
2023-09-13T01:00:58.848Z,0.00
2023-09-13T01:01:58.807Z,0.00
2023-09-13T01:02:58.818Z,0.00
2023-09-13T01:03:58.920Z,0.00
2023-09-13T01:04:58.730Z,0.00
2023-09-13T01:05:58.722Z,0.00
2023-09-13T01:06:58.700Z,0.00
2023-09-13T01:07:58.683Z,0.00
2023-09-13T01:08:58.663Z,0.00
2023-09-13T01:09:58.682Z,0.00
2023-09-13T01:10:58.627Z,0.00
2023-09-13T01:11:58.600Z,0.00
2023-09-13T01:12:58.609Z,0.00
2023-09-13T01:13:58.575Z,0.00
2023-09-13T01:14:58.555Z,0.00
2023-09-13T01:15:58.592Z,0.00
2023-09-13T01:16:58.677Z,0.00
2023-09-13T01:17:58.535Z,0.00
2023-09-13T01:18:58.496Z,0.00
2023-09-13T01:19:58.460Z,0.00
2023-09-13T01:20:58.443Z,0.00
2023-09-13T01:21:58.487Z,0.00
2023-09-13T01:22:58.399Z,0.00
2023-09-13T01:23:58.383Z,0.00
2023-09-13T01:24:58.384Z,0.00
2023-09-13T01:25:58.351Z,0.00
2023-09-13T01:26:58.330Z,0.00
2023-09-13T01:27:58.342Z,0.00
2023-09-13T01:28:58.291Z,0.00
2023-09-13T01:29:58.270Z,0.00
2023-09-13T01:30:58.282Z,0.00
2023-09-13T01:31:58.300Z,0.00
2023-09-13T01:32:58.324Z,0.00
2023-09-13T01:33:58.228Z,0.00
2023-09-13T01:34:58.189Z,0.00
2023-09-13T01:35:58.158Z,0.00
2023-09-13T01:36:58.194Z,0.00
2023-09-13T01:37:58.124Z,0.00
2023-09-13T01:38:58.109Z,0.00
2023-09-13T01:39:58.119Z,0.00
2023-09-13T01:40:58.072Z,0.00
2023-09-13T01:41:58.075Z,0.00
2023-09-13T01:42:58.085Z,0.00
2023-09-13T01:43:58.021Z,0.00
2023-09-13T01:44:58.973Z,0.00
2023-09-13T01:45:58.048Z,0.00
2023-09-13T01:46:58.050Z,0.00
2023-09-13T01:47:57.966Z,0.00
2023-09-13T01:48:57.972Z,0.00
2023-09-13T01:49:57.896Z,0.00
2023-09-13T01:50:57.911Z,0.00
2023-09-13T01:51:57.942Z,0.00
2023-09-13T01:52:57.856Z,0.00
2023-09-13T01:53:57.837Z,0.00
2023-09-13T01:54:57.821Z,0.00
2023-09-13T01:55:57.795Z,0.00
2023-09-13T01:56:57.787Z,0.00
2023-09-13T01:57:57.801Z,0.00
2023-09-13T01:58:57.756Z,0.00
2023-09-13T01:59:57.715Z,0.00
2023-09-13T02:00:57.779Z,0.00
2023-09-13T02:01:57.708Z,0.00
2023-09-13T02:02:57.745Z,0.00
2023-09-13T02:03:57.742Z,0.00
2023-09-13T02:04:57.633Z,0.00
2023-09-13T02:05:57.608Z,0.00
2023-09-13T02:06:57.657Z,0.00
2023-09-13T02:07:57.578Z,0.00
2023-09-13T02:08:57.545Z,0.00
2023-09-13T02:09:57.572Z,0.00
2023-09-13T02:10:57.513Z,0.00
2023-09-13T02:11:57.503Z,0.00
2023-09-13T02:12:57.485Z,0.00
2023-09-13T02:13:57.458Z,0.00
2023-09-13T02:14:57.465Z,0.00
2023-09-13T02:15:57.479Z,0.00
2023-09-13T02:16:57.439Z,0.00
2023-09-13T02:17:57.449Z,0.00
2023-09-13T02:18:57.417Z,0.00
2023-09-13T02:19:57.358Z,0.00
2023-09-13T02:20:57.327Z,0.00
2023-09-13T02:21:57.346Z,0.00
2023-09-13T02:22:57.294Z,0.00
2023-09-13T02:23:57.308Z,0.00
2023-09-13T02:24:57.363Z,0.00
2023-09-13T02:25:57.244Z,0.00
2023-09-13T02:26:57.230Z,0.00
2023-09-13T02:27:57.219Z,0.00
2023-09-13T02:28:57.172Z,0.00
2023-09-13T02:29:57.161Z,0.00
2023-09-13T02:30:57.173Z,0.00
2023-09-13T02:31:57.217Z,0.00
2023-09-13T02:32:57.986Z,0.00
2023-09-13T02:33:57.121Z,0.00
2023-09-13T02:34:57.070Z,0.00
2023-09-13T02:35:57.068Z,0.00
2023-09-13T02:36:57.058Z,0.00
2023-09-13T02:37:57.016Z,0.00
2023-09-13T02:38:56.996Z,0.00
2023-09-13T02:39:57.033Z,0.00
2023-09-13T02:40:56.958Z,0.00
2023-09-13T02:41:56.937Z,0.00
2023-09-13T02:42:56.973Z,0.00
2023-09-13T02:43:56.895Z,0.00
2023-09-13T02:44:56.914Z,0.00
2023-09-13T02:45:56.898Z,0.00
2023-09-13T02:46:56.862Z,0.00
2023-09-13T02:47:56.888Z,0.00
2023-09-13T02:48:56.868Z,0.00
2023-09-13T02:49:56.790Z,0.00
2023-09-13T02:50:56.756Z,0.00
2023-09-13T02:51:56.826Z,0.00
2023-09-13T02:52:56.716Z,0.00
2023-09-13T02:53:56.703Z,0.00
2023-09-13T02:54:56.735Z,0.00
2023-09-13T02:55:56.664Z,0.00
2023-09-13T02:56:56.656Z,0.00
2023-09-13T02:57:56.683Z,0.00
2023-09-13T02:58:56.626Z,0.00
2023-09-13T02:59:56.594Z,0.00
2023-09-13T03:00:56.657Z,0.00
2023-09-13T03:01:56.666Z,0.00
2023-09-13T03:02:56.649Z,0.00
2023-09-13T03:03:56.547Z,0.00
2023-09-13T03:04:56.516Z,0.00
2023-09-13T03:05:56.484Z,0.00
2023-09-13T03:06:56.493Z,0.00
2023-09-13T03:07:56.438Z,0.00
2023-09-13T03:08:56.420Z,0.00
2023-09-13T03:09:56.424Z,0.00
2023-09-13T03:10:56.403Z,0.00
2023-09-13T03:11:56.366Z,0.00
2023-09-13T03:12:56.357Z,0.00
2023-09-13T03:13:56.322Z,0.00
2023-09-13T03:14:56.319Z,0.00
2023-09-13T03:15:56.375Z,0.00
2023-09-13T03:16:56.305Z,0.00
2023-09-13T03:17:57.980Z,0.00
2023-09-13T03:18:56.252Z,0.00
2023-09-13T03:19:56.209Z,0.00
2023-09-13T03:20:56.192Z,0.00
2023-09-13T03:21:56.222Z,0.00
2023-09-13T03:22:56.149Z,0.00
2023-09-13T03:23:56.138Z,0.00
2023-09-13T03:24:56.150Z,0.00
2023-09-13T03:25:56.092Z,0.00
2023-09-13T03:26:56.061Z,0.00
2023-09-13T03:27:56.059Z,0.00
2023-09-13T03:28:56.025Z,0.00
2023-09-13T03:29:56.010Z,0.00
2023-09-13T03:30:56.153Z,0.00
2023-09-13T03:31:56.082Z,0.00
2023-09-13T03:32:56.033Z,0.00
2023-09-13T03:33:56.002Z,0.00
2023-09-13T03:34:55.906Z,0.00
2023-09-13T03:35:55.890Z,0.00
2023-09-13T03:36:55.883Z,0.00
2023-09-13T03:37:55.845Z,0.00
2023-09-13T03:38:55.862Z,0.00
2023-09-13T03:39:55.840Z,0.00
2023-09-13T03:40:56.440Z,0.00
2023-09-13T03:41:57.671Z,0.00
2023-09-13T03:42:55.775Z,0.00
2023-09-13T03:43:55.739Z,0.00
2023-09-13T03:44:55.706Z,0.00
2023-09-13T03:45:55.813Z,0.00
2023-09-13T03:46:55.736Z,0.00
2023-09-13T03:47:55.658Z,0.00
2023-09-13T03:48:55.675Z,0.00
2023-09-13T03:49:55.611Z,0.00
2023-09-13T03:50:55.587Z,0.00
2023-09-13T03:51:55.642Z,0.00
2023-09-13T03:52:55.549Z,0.00
2023-09-13T03:53:55.536Z,0.00
2023-09-13T03:54:55.583Z,0.00
2023-09-13T03:55:55.512Z,0.00
2023-09-13T03:56:55.470Z,0.00
2023-09-13T03:57:55.466Z,0.00
2023-09-13T03:58:55.460Z,0.00
2023-09-13T03:59:55.427Z,0.00
2023-09-13T04:00:55.444Z,0.00
2023-09-13T04:01:57.000Z,0.00
2023-09-13T04:02:55.384Z,0.00
2023-09-13T04:03:55.476Z,0.00
2023-09-13T04:04:55.401Z,0.00
2023-09-13T04:05:55.361Z,0.00
2023-09-13T04:06:55.410Z,0.00
2023-09-13T04:07:55.265Z,0.00
2023-09-13T04:08:55.248Z,0.00
2023-09-13T04:09:55.257Z,0.00
2023-09-13T04:10:55.204Z,0.00
2023-09-13T04:11:55.188Z,0.00
2023-09-13T04:12:55.195Z,0.00
2023-09-13T04:13:55.152Z,0.00
2023-09-13T04:14:55.137Z,0.00
2023-09-13T04:15:55.152Z,0.00
2023-09-13T04:16:55.172Z,0.00
2023-09-13T04:17:55.100Z,0.00
2023-09-13T04:18:55.075Z,0.00
2023-09-13T04:19:55.042Z,0.00
2023-09-13T04:20:55.018Z,0.00
2023-09-13T04:21:55.084Z,0.00
2023-09-13T04:22:54.981Z,0.00
2023-09-13T04:23:54.951Z,0.00
2023-09-13T04:24:54.985Z,0.00
2023-09-13T04:25:54.922Z,0.00
2023-09-13T04:26:54.891Z,0.00
2023-09-13T04:27:54.903Z,0.00
2023-09-13T04:28:54.927Z,0.00
2023-09-13T04:29:54.847Z,0.00
2023-09-13T04:30:54.857Z,0.00
2023-09-13T04:31:54.845Z,0.00
2023-09-13T04:32:54.821Z,0.00
2023-09-13T04:33:55.059Z,0.00
2023-09-13T04:34:54.750Z,0.00
2023-09-13T04:35:54.736Z,0.00
2023-09-13T04:36:54.716Z,0.00
2023-09-13T04:37:54.688Z,0.00
2023-09-13T04:38:54.699Z,0.00
2023-09-13T04:39:54.710Z,0.00
2023-09-13T04:40:54.651Z,0.00
2023-09-13T04:41:54.618Z,0.00
2023-09-13T04:42:54.608Z,0.00
2023-09-13T04:43:54.575Z,0.00
2023-09-13T04:44:54.564Z,0.00
2023-09-13T04:45:54.570Z,0.00
2023-09-13T04:46:54.673Z,0.00
2023-09-13T04:47:54.539Z,0.00
2023-09-13T04:48:54.522Z,0.00
2023-09-13T04:49:54.465Z,0.00
2023-09-13T04:50:54.484Z,0.00
2023-09-13T04:51:54.450Z,5.63
2023-09-13T04:52:54.453Z,5.63
2023-09-13T04:53:54.391Z,5.63
2023-09-13T04:54:54.394Z,5.63
2023-09-13T04:55:54.354Z,5.63
2023-09-13T04:56:54.355Z,5.63
2023-09-13T04:57:54.347Z,5.63
2023-09-13T04:58:54.288Z,5.63
2023-09-13T04:59:54.314Z,5.63
2023-09-13T05:00:54.290Z,5.63
2023-09-13T05:01:54.354Z,11.25
2023-09-13T05:02:54.246Z,11.25
2023-09-13T05:03:54.310Z,11.25
2023-09-13T05:04:54.217Z,11.25
2023-09-13T05:05:54.179Z,11.25
2023-09-13T05:06:54.170Z,11.25
2023-09-13T05:07:54.131Z,11.25
2023-09-13T05:08:54.104Z,11.25
2023-09-13T05:09:54.113Z,11.25
2023-09-13T05:10:54.062Z,11.25
2023-09-13T05:11:54.050Z,11.25
2023-09-13T05:12:54.115Z,11.25
2023-09-13T05:13:54.020Z,16.88
2023-09-13T05:14:53.988Z,16.88
2023-09-13T05:15:54.035Z,22.50
2023-09-13T05:16:54.077Z,22.50
2023-09-13T05:17:53.957Z,22.50
2023-09-13T05:18:53.952Z,28.13
2023-09-13T05:19:53.936Z,39.38
2023-09-13T05:20:53.877Z,33.75
2023-09-13T05:21:53.897Z,33.75
2023-09-13T05:22:53.841Z,39.38
2023-09-13T05:23:53.839Z,39.38
2023-09-13T05:24:53.862Z,39.38
2023-09-13T05:25:53.786Z,45.00
2023-09-13T05:26:53.768Z,50.63
2023-09-13T05:27:53.770Z,61.88
2023-09-13T05:28:53.741Z,61.88
2023-09-13T05:29:53.715Z,61.88
2023-09-13T05:30:53.789Z,61.88
2023-09-13T05:31:57.568Z,61.88
2023-09-13T05:32:53.721Z,61.88
2023-09-13T05:33:53.663Z,61.88
2023-09-13T05:34:53.659Z,61.88
2023-09-13T05:35:53.609Z,67.50
2023-09-13T05:36:53.659Z,56.25
2023-09-13T05:37:53.584Z,56.25
2023-09-13T05:38:53.552Z,56.25
2023-09-13T05:39:53.556Z,61.88
2023-09-13T05:40:53.512Z,61.88
2023-09-13T05:41:53.492Z,61.88
2023-09-13T05:42:53.519Z,67.50
2023-09-13T05:43:53.462Z,73.13
2023-09-13T05:44:53.443Z,84.38
2023-09-13T05:45:53.450Z,84.38
2023-09-13T05:46:53.479Z,84.38
2023-09-13T05:47:53.512Z,84.38
2023-09-13T05:48:53.419Z,95.63
2023-09-13T05:49:53.353Z,112.50
2023-09-13T05:50:53.332Z,123.75
2023-09-13T05:51:53.377Z,123.75
2023-09-13T05:52:53.320Z,123.75
2023-09-13T05:53:53.316Z,123.75
2023-09-13T05:54:53.316Z,123.75
2023-09-13T05:55:53.251Z,106.88
2023-09-13T05:56:53.242Z,106.88
2023-09-13T05:57:53.261Z,101.25
2023-09-13T05:58:53.189Z,112.50
2023-09-13T05:59:53.191Z,101.25
2023-09-13T06:00:53.270Z,95.63
2023-09-13T06:01:53.228Z,106.88
2023-09-13T06:02:53.171Z,95.63
2023-09-13T06:03:53.231Z,101.25
2023-09-13T06:04:53.149Z,106.88
2023-09-13T06:05:53.077Z,106.88
2023-09-13T06:06:53.081Z,112.50
2023-09-13T06:07:53.042Z,106.88
2023-09-13T06:08:53.005Z,106.88
2023-09-13T06:09:53.048Z,106.88
2023-09-13T06:10:52.981Z,112.50
2023-09-13T06:11:52.968Z,112.50
2023-09-13T06:12:53.025Z,106.88
2023-09-13T06:13:52.936Z,106.88
2023-09-13T06:14:52.910Z,101.25
2023-09-13T06:15:52.973Z,95.63
2023-09-13T06:16:53.032Z,101.25
2023-09-13T06:17:52.978Z,106.88
2023-09-13T06:18:52.871Z,106.88
2023-09-13T06:19:52.812Z,118.13
2023-09-13T06:20:52.803Z,140.63
2023-09-13T06:21:52.788Z,157.50
2023-09-13T06:22:52.773Z,180.00
2023-09-13T06:23:52.750Z,202.50
2023-09-13T06:24:52.764Z,225.00
2023-09-13T06:25:53.513Z,230.63
2023-09-13T06:26:52.701Z,225.00
2023-09-13T06:27:52.749Z,219.38
2023-09-13T06:28:52.797Z,213.75
2023-09-13T06:29:52.658Z,213.75
2023-09-13T06:31:02.536Z,208.13
2023-09-13T06:32:04.738Z,208.13
2023-09-13T06:33:07.662Z,196.88
2023-09-13T06:33:52.684Z,185.63
2023-09-13T06:34:52.754Z,180.00
2023-09-13T06:35:52.664Z,180.00
2023-09-13T06:36:52.968Z,180.00
2023-09-13T06:37:52.677Z,174.38
2023-09-13T06:38:52.587Z,168.75
2023-09-13T06:39:52.588Z,163.13
2023-09-13T06:40:52.749Z,163.13
2023-09-13T06:41:52.529Z,163.13
2023-09-13T06:42:59.681Z,157.50
2023-09-13T06:44:05.901Z,157.50
2023-09-13T06:44:53.706Z,151.88
2023-09-13T06:46:03.248Z,151.88
2023-09-13T06:47:01.901Z,151.88
2023-09-13T06:47:53.978Z,146.25
2023-09-13T06:48:53.117Z,146.25
2023-09-13T06:49:52.532Z,151.88
2023-09-13T06:51:33.455Z,157.50
2023-09-13T06:51:54.502Z,157.50
2023-09-13T06:53:11.254Z,157.50
2023-09-13T06:53:54.785Z,163.13
2023-09-13T06:54:52.763Z,168.75
2023-09-13T06:55:54.286Z,168.75
2023-09-13T06:56:55.054Z,174.38
2023-09-13T06:57:53.241Z,180.00
2023-09-13T06:58:54.773Z,185.63
2023-09-13T06:59:56.388Z,185.63
2023-09-13T07:01:19.467Z,185.63
2023-09-13T07:02:53.909Z,191.25
2023-09-13T07:03:55.773Z,196.88
2023-09-13T07:05:52.188Z,202.50
2023-09-13T07:06:52.162Z,202.50
2023-09-13T07:07:52.045Z,208.13
2023-09-13T07:08:51.995Z,202.50
2023-09-13T07:09:52.013Z,196.88
2023-09-13T07:10:51.989Z,196.88
2023-09-13T07:11:51.952Z,202.50
2023-09-13T07:12:51.933Z,213.75
2023-09-13T07:13:51.966Z,213.75
2023-09-13T07:14:51.903Z,213.75
2023-09-13T07:15:51.876Z,208.13
2023-09-13T07:16:51.952Z,202.50
2023-09-13T07:17:51.908Z,202.50
2023-09-13T07:18:51.833Z,202.50
2023-09-13T07:19:51.845Z,202.50
2023-09-13T07:20:51.799Z,202.50
2023-09-13T07:21:51.791Z,191.25
2023-09-13T07:22:51.812Z,185.63
2023-09-13T07:23:51.858Z,185.63
2023-09-13T07:24:51.733Z,191.25
2023-09-13T07:25:51.786Z,196.88
2023-09-13T07:26:51.720Z,208.13
2023-09-13T07:27:51.675Z,225.00
2023-09-13T07:28:51.716Z,236.25
2023-09-13T07:29:51.640Z,230.63
2023-09-13T07:30:51.675Z,225.00
2023-09-13T07:31:51.633Z,213.75
2023-09-13T07:32:51.655Z,219.38
2023-09-13T07:33:51.576Z,225.00
2023-09-13T07:34:51.579Z,225.00
2023-09-13T07:35:51.551Z,208.13
2023-09-13T07:36:51.544Z,196.88
2023-09-13T07:37:51.637Z,196.88
2023-09-13T07:38:51.510Z,213.75
2023-09-13T07:39:51.478Z,247.50
2023-09-13T07:40:51.469Z,264.38
2023-09-13T07:41:51.452Z,275.63
2023-09-13T07:42:51.428Z,309.38
2023-09-13T07:43:51.438Z,343.13
2023-09-13T07:44:51.392Z,376.88
2023-09-13T07:45:51.377Z,399.38
2023-09-13T07:46:51.437Z,399.38
2023-09-13T07:47:51.422Z,388.13
2023-09-13T07:48:51.335Z,365.63
2023-09-13T07:49:51.347Z,343.13
2023-09-13T07:50:51.295Z,348.75
2023-09-13T07:51:52.050Z,354.38
2023-09-13T07:53:04.450Z,376.88
2023-09-13T07:53:51.292Z,410.63
2023-09-13T07:54:51.238Z,438.75
2023-09-13T07:55:51.243Z,450.00
2023-09-13T07:56:51.234Z,450.00
2023-09-13T07:57:51.185Z,450.00
2023-09-13T07:58:51.263Z,455.63
2023-09-13T07:59:51.160Z,478.13
2023-09-13T08:00:51.168Z,500.63
2023-09-13T08:01:51.154Z,495.00
2023-09-13T08:02:51.247Z,466.88
2023-09-13T08:03:51.173Z,450.00
2023-09-13T08:04:51.157Z,466.88
2023-09-13T08:05:51.069Z,500.63
2023-09-13T08:06:51.061Z,540.00
2023-09-13T08:07:51.098Z,568.13
2023-09-13T08:08:51.116Z,562.50
2023-09-13T08:09:51.003Z,534.38
2023-09-13T08:10:51.043Z,523.13
2023-09-13T08:11:50.969Z,511.88
2023-09-13T08:12:50.986Z,528.75
2023-09-13T08:13:51.016Z,562.50
2023-09-13T08:14:50.948Z,585.00
2023-09-13T08:15:50.981Z,585.00
2023-09-13T08:16:50.972Z,579.38
2023-09-13T08:17:50.891Z,562.50
2023-09-13T08:18:50.877Z,534.38
2023-09-13T08:19:51.419Z,511.88
2023-09-13T08:20:50.851Z,500.63
2023-09-13T08:21:50.831Z,478.13
2023-09-13T08:22:50.840Z,472.50
2023-09-13T08:23:50.800Z,466.88
2023-09-13T08:24:50.814Z,461.25
2023-09-13T08:25:50.784Z,461.25
2023-09-13T08:26:50.754Z,455.63
2023-09-13T08:27:52.635Z,438.75
2023-09-13T08:28:51.620Z,405.00
2023-09-13T08:29:50.732Z,371.25
2023-09-13T08:30:50.733Z,315.00
2023-09-13T08:31:50.694Z,247.50
2023-09-13T08:32:50.688Z,270.00
2023-09-13T08:33:50.682Z,331.88
2023-09-13T08:34:50.676Z,376.88
2023-09-13T08:35:50.620Z,427.50
2023-09-13T08:36:50.628Z,472.50
2023-09-13T08:37:51.088Z,489.38
2023-09-13T08:38:50.577Z,511.88
2023-09-13T08:39:50.599Z,523.13
2023-09-13T08:40:50.726Z,495.00
2023-09-13T08:41:50.635Z,489.38
2023-09-13T08:42:51.083Z,489.38
2023-09-13T08:43:50.535Z,506.25
2023-09-13T08:44:50.494Z,506.25
2023-09-13T08:45:50.524Z,483.75
2023-09-13T08:46:50.576Z,455.63
2023-09-13T08:47:58.679Z,450.00
2023-09-13T08:48:50.467Z,466.88
2023-09-13T08:49:50.511Z,500.63
2023-09-13T08:50:50.430Z,523.13
2023-09-13T08:51:50.390Z,517.50
2023-09-13T08:52:50.414Z,495.00
2023-09-13T08:53:50.361Z,433.13
2023-09-13T08:54:58.632Z,354.38
2023-09-13T08:55:50.363Z,298.13
2023-09-13T08:56:50.332Z,258.75
2023-09-13T08:57:50.311Z,253.13
2023-09-13T08:58:50.369Z,275.63
2023-09-13T08:59:50.277Z,303.75
2023-09-13T09:00:50.269Z,331.88
2023-09-13T09:01:50.397Z,365.63
2023-09-13T09:02:50.351Z,371.25
2023-09-13T09:03:50.258Z,348.75
2023-09-13T09:04:50.282Z,331.88
2023-09-13T09:05:50.182Z,331.88
2023-09-13T09:06:50.166Z,337.50
2023-09-13T09:07:50.247Z,371.25
2023-09-13T09:08:50.142Z,399.38
2023-09-13T09:09:50.164Z,416.25
2023-09-13T09:10:50.123Z,427.50
2023-09-13T09:11:50.105Z,433.13
2023-09-13T09:12:50.121Z,427.50
2023-09-13T09:13:50.136Z,405.00
2023-09-13T09:14:50.060Z,376.88
2023-09-13T09:15:50.070Z,360.00
2023-09-13T09:16:50.034Z,348.75
2023-09-13T09:17:50.072Z,354.38
2023-09-13T09:18:50.002Z,360.00
2023-09-13T09:19:50.015Z,376.88
2023-09-13T09:20:49.975Z,388.13
2023-09-13T09:21:49.955Z,405.00
2023-09-13T09:22:49.957Z,421.88
2023-09-13T09:23:49.942Z,427.50
2023-09-13T09:24:49.917Z,444.38
2023-09-13T09:25:49.917Z,466.88
2023-09-13T09:26:49.875Z,478.13
2023-09-13T09:27:49.874Z,495.00
2023-09-13T09:28:53.096Z,506.25
2023-09-13T09:29:49.870Z,483.75
2023-09-13T09:30:49.832Z,495.00
2023-09-13T09:31:49.872Z,528.75
2023-09-13T09:32:49.840Z,568.13
2023-09-13T09:33:49.781Z,596.25
2023-09-13T09:34:49.785Z,646.88
2023-09-13T09:35:49.760Z,675.00
2023-09-13T09:36:49.741Z,680.63
2023-09-13T09:37:49.778Z,663.75
2023-09-13T09:38:49.802Z,646.88
2023-09-13T09:39:49.692Z,646.88
2023-09-13T09:40:49.737Z,635.63
2023-09-13T09:41:49.674Z,641.25
2023-09-13T09:42:49.653Z,680.63
2023-09-13T09:43:49.762Z,714.38
2023-09-13T09:44:49.628Z,720.00
2023-09-13T09:45:49.776Z,720.00
2023-09-13T09:46:49.615Z,736.88
2023-09-13T09:47:49.717Z,781.88
2023-09-13T09:48:49.574Z,787.50
2023-09-13T09:49:49.600Z,759.38
2023-09-13T09:50:49.570Z,748.13
2023-09-13T09:51:49.535Z,736.88
2023-09-13T09:52:49.533Z,714.38
2023-09-13T09:53:49.567Z,708.75
2023-09-13T09:54:49.533Z,720.00
2023-09-13T09:55:49.487Z,697.50
2023-09-13T09:56:49.469Z,697.50
2023-09-13T09:57:49.451Z,742.50
2023-09-13T09:58:49.487Z,804.38
2023-09-13T09:59:49.418Z,933.75
2023-09-13T10:00:49.470Z,995.63
2023-09-13T10:01:49.456Z,770.63
2023-09-13T10:02:49.536Z,630.00
2023-09-13T10:03:49.477Z,556.88
2023-09-13T10:04:49.546Z,500.63
2023-09-13T10:05:49.375Z,461.25
2023-09-13T10:06:49.371Z,399.38
2023-09-13T10:07:49.341Z,371.25
2023-09-13T10:08:50.182Z,354.38
2023-09-13T10:09:49.313Z,331.88
2023-09-13T10:10:49.330Z,309.38
2023-09-13T10:11:49.270Z,309.38
2023-09-13T10:12:49.256Z,320.63
2023-09-13T10:13:49.312Z,303.75
2023-09-13T10:14:49.241Z,292.50
2023-09-13T10:15:49.297Z,286.88
2023-09-13T10:16:49.245Z,275.63
2023-09-13T10:17:49.340Z,281.25
2023-09-13T10:18:50.427Z,320.63
2023-09-13T10:19:49.231Z,371.25
2023-09-13T10:20:49.152Z,399.38
2023-09-13T10:21:49.151Z,405.00
2023-09-13T10:22:49.153Z,410.63
2023-09-13T10:23:49.115Z,427.50
2023-09-13T10:24:49.124Z,433.13
2023-09-13T10:25:49.108Z,455.63
2023-09-13T10:26:49.071Z,500.63
2023-09-13T10:27:49.055Z,534.38
2023-09-13T10:28:49.059Z,528.75
2023-09-13T10:29:49.063Z,579.38
2023-09-13T10:30:49.014Z,714.38
2023-09-13T10:31:49.089Z,866.25
2023-09-13T10:32:49.056Z,900.00
2023-09-13T10:33:48.975Z,888.75
2023-09-13T10:34:49.023Z,810.00
2023-09-13T10:35:48.947Z,770.63
2023-09-13T10:36:48.932Z,720.00
2023-09-13T10:37:48.962Z,652.50
2023-09-13T10:38:48.913Z,618.75
2023-09-13T10:39:48.893Z,607.50
2023-09-13T10:40:48.905Z,585.00
2023-09-13T10:41:48.870Z,556.88
2023-09-13T10:42:48.855Z,528.75
2023-09-13T10:43:48.871Z,500.63
2023-09-13T10:44:48.823Z,483.75
2023-09-13T10:45:48.820Z,461.25
2023-09-13T10:46:48.872Z,455.63
2023-09-13T10:47:48.889Z,455.63
2023-09-13T10:48:48.775Z,478.13
2023-09-13T10:49:48.788Z,495.00
2023-09-13T10:50:48.749Z,506.25
2023-09-13T10:51:48.749Z,506.25
2023-09-13T10:52:48.767Z,517.50
2023-09-13T10:53:48.708Z,528.75
2023-09-13T10:54:48.705Z,556.88
2023-09-13T10:55:48.736Z,573.75
2023-09-13T10:56:48.672Z,601.88
2023-09-13T10:57:48.678Z,641.25
2023-09-13T10:58:48.802Z,669.38
2023-09-13T10:59:48.645Z,765.00
2023-09-13T11:00:48.653Z,725.63
2023-09-13T11:01:48.651Z,759.38
2023-09-13T11:02:52.076Z,832.50
2023-09-13T11:03:48.668Z,1012.50
2023-09-13T11:04:48.624Z,1895.63
2023-09-13T11:05:48.556Z,1080.00
2023-09-13T11:06:48.559Z,1113.75
2023-09-13T11:07:48.985Z,1856.25
2023-09-13T11:08:48.542Z,1816.88
2023-09-13T11:09:48.512Z,1895.63
2023-09-13T11:10:48.544Z,1951.88
2023-09-13T11:11:48.485Z,1935.00
2023-09-13T11:12:48.469Z,1991.25
2023-09-13T11:13:48.499Z,1974.38
2023-09-13T11:14:48.457Z,1974.38
2023-09-13T11:15:48.444Z,1102.50
2023-09-13T11:16:48.532Z,1198.13
2023-09-13T11:17:48.496Z,849.38
2023-09-13T11:18:48.761Z,691.88
2023-09-13T11:19:48.458Z,596.25
2023-09-13T11:20:48.416Z,556.88
2023-09-13T11:21:48.392Z,551.25
2023-09-13T11:22:48.429Z,551.25
2023-09-13T11:24:02.665Z,624.38
2023-09-13T11:25:02.380Z,573.75
2023-09-13T11:26:01.020Z,517.50
2023-09-13T11:26:48.446Z,466.88
2023-09-13T11:27:48.340Z,427.50
2023-09-13T11:28:48.640Z,421.88
2023-09-13T11:29:48.319Z,405.00
2023-09-13T11:30:48.365Z,410.63
2023-09-13T11:31:48.315Z,427.50
2023-09-13T11:32:48.326Z,438.75
2023-09-13T11:33:48.269Z,444.38
2023-09-13T11:34:48.287Z,466.88
2023-09-13T11:35:48.279Z,472.50
2023-09-13T11:36:48.237Z,483.75
2023-09-13T11:37:48.241Z,495.00
2023-09-13T11:38:48.218Z,500.63
2023-09-13T11:39:48.214Z,500.63
2023-09-13T11:40:48.262Z,483.75
2023-09-13T11:41:54.434Z,472.50
2023-09-13T11:43:02.540Z,455.63
2023-09-13T11:44:02.455Z,438.75
2023-09-13T11:45:01.073Z,421.88
2023-09-13T11:45:48.176Z,416.25
2023-09-13T11:46:48.225Z,416.25
2023-09-13T11:47:48.243Z,421.88
2023-09-13T11:48:58.798Z,433.13
2023-09-13T11:50:02.079Z,450.00
2023-09-13T11:50:49.991Z,461.25
2023-09-13T11:51:53.849Z,495.00
2023-09-13T11:52:48.511Z,528.75
2023-09-13T11:53:49.046Z,573.75
2023-09-13T11:55:05.308Z,624.38
2023-09-13T11:56:45.785Z,697.50
2023-09-13T11:57:55.320Z,731.25
2023-09-13T11:59:38.896Z,804.38
2023-09-13T12:00:37.756Z,838.13
2023-09-13T12:01:38.467Z,888.75
2023-09-13T12:02:37.958Z,928.13
2023-09-13T12:04:13.191Z,905.63
2023-09-13T12:04:52.770Z,866.25
2023-09-13T12:06:39.524Z,798.75
2023-09-13T12:07:39.396Z,635.63
2023-09-13T12:08:37.687Z,551.25
2023-09-13T12:09:39.558Z,506.25
2023-09-13T12:10:40.431Z,483.75
2023-09-13T12:11:40.496Z,517.50
2023-09-13T12:12:46.213Z,551.25
2023-09-13T12:13:42.945Z,585.00
2023-09-13T12:16:38.339Z,562.50
2023-09-13T12:17:37.425Z,495.00
2023-09-13T12:18:37.339Z,382.50
2023-09-13T12:19:37.360Z,292.50
2023-09-13T12:20:37.273Z,247.50
2023-09-13T12:21:37.448Z,225.00
2023-09-13T12:22:37.220Z,225.00
2023-09-13T12:23:37.219Z,230.63
2023-09-13T12:24:37.256Z,247.50
2023-09-13T12:25:37.189Z,258.75
2023-09-13T12:26:37.167Z,236.25
2023-09-13T12:27:37.303Z,219.38
2023-09-13T12:28:37.197Z,202.50
2023-09-13T12:29:37.140Z,208.13
2023-09-13T12:30:37.216Z,219.38
2023-09-13T12:31:37.137Z,253.13
2023-09-13T12:32:37.104Z,275.63
2023-09-13T12:33:37.138Z,309.38
2023-09-13T12:34:37.066Z,343.13
2023-09-13T12:35:37.063Z,382.50
2023-09-13T12:36:37.079Z,433.13
2023-09-13T12:37:37.028Z,495.00
2023-09-13T12:38:37.010Z,573.75
2023-09-13T12:39:37.057Z,630.00
2023-09-13T12:40:36.991Z,675.00
2023-09-13T12:41:36.991Z,697.50
2023-09-13T12:42:36.998Z,714.38
2023-09-13T12:43:36.982Z,748.13
2023-09-13T12:44:36.973Z,793.13
2023-09-13T12:45:36.928Z,855.00
2023-09-13T12:46:36.966Z,905.63
2023-09-13T12:47:37.044Z,916.88
2023-09-13T12:48:36.939Z,911.25
2023-09-13T12:49:36.870Z,933.75
2023-09-13T12:50:38.852Z,950.63
2023-09-13T12:51:36.871Z,961.88
2023-09-13T12:52:36.821Z,916.88
2023-09-13T12:53:36.829Z,990.00
2023-09-13T12:54:36.831Z,900.00
2023-09-13T12:55:36.797Z,900.00